This is the latest recevied weather packets stored in our database for station/object DG8AAC-L2. If no packets are shown the sender has not sent any weather packets the latest 10 day(s).
| Time | Temp. | Humidity | Pressure | Rain* | Wind** | Luminosity | Snow |
|---|---|---|---|---|---|---|---|
| 1777501411 | 10° C | 34% | 1033.4 hPa | - | - | - | - |
| 1777499611 | 10.56° C | 33% | 1033 hPa | - | - | - | - |
| 1777497811 | 11.67° C | 33% | 1032.9 hPa | - | - | - | - |
| 1777496011 | 12.22° C | 32% | 1032.6 hPa | - | - | - | - |
| 1777494211 | 12.78° C | 31% | 1032.5 hPa | - | - | - | - |
| 1777492411 | 13.89° C | 31% | 1032.4 hPa | - | - | - | - |
| 1777490611 | 14.44° C | 30% | 1032.1 hPa | - | - | - | - |
| 1777488811 | 15.56° C | 29% | 1031.9 hPa | - | - | - | - |
| 1777487011 | 16.11° C | 28% | 1031.7 hPa | - | - | - | - |
| 1777485211 | 16.67° C | 27% | 1031.4 hPa | - | - | - | - |
| 1777483410 | 17.78° C | 27% | 1031.3 hPa | - | - | - | - |
| 1777481610 | 18.33° C | 26% | 1031.1 hPa | - | - | - | - |
| 1777479810 | 18.89° C | 26% | 1031.1 hPa | - | - | - | - |
| 1777478010 | 18.89° C | 25% | 1031.1 hPa | - | - | - | - |
| 1777476210 | 18.89° C | 24% | 1031 hPa | - | - | - | - |
| 1777474410 | 17.78° C | 24% | 1031.2 hPa | - | - | - | - |
| 1777472610 | 17.78° C | 25% | 1031.3 hPa | - | - | - | - |
| 1777470810 | 18.33° C | 24% | 1031.2 hPa | - | - | - | - |
| 1777469010 | 17.78° C | 25% | 1031.4 hPa | - | - | - | - |
| 1777467210 | 17.78° C | 23% | 1031.2 hPa | - | - | - | - |
| 1777465410 | 16.67° C | 26% | 1031.5 hPa | - | - | - | - |
| 1777463610 | 16.11° C | 27% | 1031.7 hPa | - | - | - | - |
| 1777461810 | 15.56° C | 24% | 1031.7 hPa | - | - | - | - |
| 1777460009 | 15° C | 25% | 1031.9 hPa | - | - | - | - |
| 1777458209 | 13.89° C | 26% | 1032 hPa | - | - | - | - |
* Rain since midnight (hover to see other rain measurements)
** Current wind speed in m/s (hover to see current wind gust speed)